Terminal Aerodrome Forecast
Issued by NWS

Home | Current Version | Previous Version | Text Only | Print | Product List | Glossary On
Versions: 1 2 3 4 5 6 7 8 9 10 11 12 13 14 15 16
000
FTUS42 TJSJ 061747
TAFIST
TAF
TIST 061747Z 0618/0718 12015KT P6SM SCT015 SCT040
     FM062300 09012KT P6SM FEW025
     FM071300 11012KT P6SM SCT025=

USA.gov is the U.S. government's official web portal to all federal, state and local government web resources and services.